Howe Sound: Past 24 Hour Conditions

 

Sentry Shoal - 46131

01:00 AM PST 24 January 2018Buoy position: 49.92N 125.0W
Disclaimer

This table is a summary of hourly weather conditions for the past 24 hours.
Please note that these observations might not always be representative of weather conditions over their associated marine area.

Date / Time
(PST)
Wind(knots) Wave height(m) Wave period(s) Pressure(kPa) Air tempC) Water tempC)
24 January 2018
1:00 ESE 18 gust 19 1.0 4.0 100.2 8 8
0:00 ESE 19 gust 25 1.2 5.0 100.1 8 8
23 January 2018
23:00 ESE 18 1.2 6.0 100.2 8 8
22:00 ESE 16 gust 19 1.3 5.0 100.3 7 8
21:00 ESE 16 gust 18 1.4 5.0 100.3 7 8
20:00 ESE 19 gust 23 1.4 6.0 100.3 7 8
19:00 ESE 16 gust 18 1.6 6.0 100.5 8 8
18:00 ESE 16 gust 19 1.7 6.0 100.5 8 8
17:00 ESE 23 gust 29 1.7 6.0 100.5 8 8
16:00 ESE 19 gust 25 1.9 6.0 100.5 8 8
15:00 ESE 25 gust 31 2.2 7.0 100.5 8 8
14:00 ESE 31 gust 37 2.3 6.0 100.5 7 8
13:00 ESE 31 gust 39 2.2 6.0 100.5 7 8
12:00 ESE 31 gust 37 2.0 7.0 100.6 7 8
11:00 ESE 23 gust 27 1.8 7.0 100.7 7 8
10:00 ESE 27 gust 33 1.7 6.0 100.8 6 8
9:00 ESE 25 gust 31 1.6 5.0 100.9 6 8
8:00 N/A N/A N/A N/A N/A N/A
7:00 ESE 23 gust 31 1.5 6.0 101.1 7 8
6:00 E 23 gust 29 1.5 5.0 101.2 7 8
5:00 E 25 gust 29 1.4 5.0 101.3 7 8
4:00 E 25 gust 29 1.3 5.0 101.5 7 8
3:00 E 25 gust 29 1.2 5.0 101.7 7 8
2:00 E 23 gust 29 1.1 4.0 101.8 7 8
1:00 ESE 21 gust 25 0.9 4.0 102.0 7 8

Zoom-in to make a selection

Map of Pacific - Georgia Basin marine weather areas Tsawwassen Ferry Terminal Sentry Shoal - 46131 Halibut Bank - 46146 La Perouse Bank - 46206 Discovery Island Esquimalt Harbour Kelp Reefs Malahat Race Rocks Lightstation Saturna Island Sheringham Point University of Victoria Victoria Gonzales Victoria Int'l Airport Ballenas Islands Campbell River Airport Comox Airport Entrance Island Fanny Island Nanaimo Airport Sisters Islets Estevan Point Tofino Airport Grief Point Powell River Airport Sechelt Point Atkinson Sand Heads Lightstation Vancouver Harbour Vancouver Int'l Airport West Vancouver Port Alberni Howe Sound - Pam Rocks Squamish Airport
Legend:
buoy Buoy
land station Land Station

Pacific - Georgia Basin Area

Another Region

What we are doing

Date modified: